sensor_id;sensor_type;location;lat;lon;timestamp;P1;durP1;ratioP1;P2;durP2;ratioP2
36855;SDS011;22788;51.434;6.786;2023-02-28T00:01:05;4.03;;;3.17;;
36855;SDS011;22788;51.434;6.786;2023-02-28T00:03:31;4.50;;;3.47;;
36855;SDS011;22788;51.434;6.786;2023-02-28T00:05:57;5.27;;;3.80;;
36855;SDS011;22788;51.434;6.786;2023-02-28T00:08:24;4.17;;;3.70;;
36855;SDS011;22788;51.434;6.786;2023-02-28T00:10:50;6.23;;;3.23;;
36855;SDS011;22788;51.434;6.786;2023-02-28T00:13:16;4.93;;;3.33;;
36855;SDS011;22788;51.434;6.786;2023-02-28T00:15:42;6.13;;;3.57;;
36855;SDS011;22788;51.434;6.786;2023-02-28T00:18:08;4.13;;;3.47;;
36855;SDS011;22788;51.434;6.786;2023-02-28T00:20:34;6.73;;;3.80;;
36855;SDS011;22788;51.434;6.786;2023-02-28T00:23:00;5.50;;;3.70;;
36855;SDS011;22788;51.434;6.786;2023-02-28T00:25:28;3.63;;;3.23;;
36855;SDS011;22788;51.434;6.786;2023-02-28T00:27:54;5.83;;;3.30;;
36855;SDS011;22788;51.434;6.786;2023-02-28T00:30:21;6.87;;;3.90;;
36855;SDS011;22788;51.434;6.786;2023-02-28T00:32:48;5.77;;;3.60;;
36855;SDS011;22788;51.434;6.786;2023-02-28T00:35:15;5.20;;;3.63;;
36855;SDS011;22788;51.434;6.786;2023-02-28T00:37:41;5.00;;;3.90;;
36855;SDS011;22788;51.434;6.786;2023-02-28T00:40:08;3.77;;;3.33;;
36855;SDS011;22788;51.434;6.786;2023-02-28T00:42:36;5.13;;;3.60;;
36855;SDS011;22788;51.434;6.786;2023-02-28T00:45:03;3.88;;;3.47;;
36855;SDS011;22788;51.434;6.786;2023-02-28T00:47:30;5.57;;;3.93;;
36855;SDS011;22788;51.434;6.786;2023-02-28T00:49:56;6.37;;;3.73;;
36855;SDS011;22788;51.434;6.786;2023-02-28T00:52:22;4.93;;;3.20;;
36855;SDS011;22788;51.434;6.786;2023-02-28T00:54:48;4.20;;;3.47;;
36855;SDS011;22788;51.434;6.786;2023-02-28T00:57:14;4.77;;;3.63;;
36855;SDS011;22788;51.434;6.786;2023-02-28T00:59:41;3.20;;;2.90;;
36855;SDS011;22788;51.434;6.786;2023-02-28T01:02:07;5.37;;;3.53;;
36855;SDS011;22788;51.434;6.786;2023-02-28T01:04:33;6.30;;;3.57;;
36855;SDS011;22788;51.434;6.786;2023-02-28T01:07:00;5.80;;;3.93;;
36855;SDS011;22788;51.434;6.786;2023-02-28T01:09:26;6.23;;;3.83;;
36855;SDS011;22788;51.434;6.786;2023-02-28T01:11:52;5.50;;;3.57;;
36855;SDS011;22788;51.434;6.786;2023-02-28T01:14:18;6.57;;;4.07;;
36855;SDS011;22788;51.434;6.786;2023-02-28T01:16:45;4.37;;;3.97;;
36855;SDS011;22788;51.434;6.786;2023-02-28T01:19:11;8.57;;;3.33;;
36855;SDS011;22788;51.434;6.786;2023-02-28T01:21:38;5.53;;;3.50;;
36855;SDS011;22788;51.434;6.786;2023-02-28T01:24:04;4.63;;;3.70;;
36855;SDS011;22788;51.434;6.786;2023-02-28T01:26:31;5.27;;;3.90;;
36855;SDS011;22788;51.434;6.786;2023-02-28T01:28:57;5.27;;;3.70;;
36855;SDS011;22788;51.434;6.786;2023-02-28T01:31:23;5.07;;;3.53;;
36855;SDS011;22788;51.434;6.786;2023-02-28T01:33:51;7.57;;;4.50;;
36855;SDS011;22788;51.434;6.786;2023-02-28T01:36:18;4.13;;;3.43;;
36855;SDS011;22788;51.434;6.786;2023-02-28T01:38:45;6.90;;;4.43;;
36855;SDS011;22788;51.434;6.786;2023-02-28T01:41:14;4.30;;;3.70;;
36855;SDS011;22788;51.434;6.786;2023-02-28T01:43:53;7.93;;;3.53;;
36855;SDS011;22788;51.434;6.786;2023-02-28T01:46:21;5.13;;;3.53;;
36855;SDS011;22788;51.434;6.786;2023-02-28T01:48:49;8.90;;;3.77;;
36855;SDS011;22788;51.434;6.786;2023-02-28T01:51:21;4.57;;;3.60;;
36855;SDS011;22788;51.434;6.786;2023-02-28T01:53:51;3.93;;;3.10;;
36855;SDS011;22788;51.434;6.786;2023-02-28T01:56:22;3.73;;;3.37;;
36855;SDS011;22788;51.434;6.786;2023-02-28T01:58:52;5.73;;;4.13;;
36855;SDS011;22788;51.434;6.786;2023-02-28T02:01:19;5.23;;;3.30;;
36855;SDS011;22788;51.434;6.786;2023-02-28T02:03:46;4.67;;;3.43;;
36855;SDS011;22788;51.434;6.786;2023-02-28T02:06:14;6.50;;;3.20;;
36855;SDS011;22788;51.434;6.786;2023-02-28T02:08:40;3.73;;;3.07;;
36855;SDS011;22788;51.434;6.786;2023-02-28T02:11:07;4.70;;;3.00;;
36855;SDS011;22788;51.434;6.786;2023-02-28T02:13:40;4.93;;;3.33;;
36855;SDS011;22788;51.434;6.786;2023-02-28T02:16:21;3.43;;;2.87;;
36855;SDS011;22788;51.434;6.786;2023-02-28T02:18:59;5.47;;;3.00;;
36855;SDS011;22788;51.434;6.786;2023-02-28T02:21:47;4.47;;;2.93;;
36855;SDS011;22788;51.434;6.786;2023-02-28T02:27:32;4.00;;;2.90;;
36855;SDS011;22788;51.434;6.786;2023-02-28T02:30:27;3.37;;;3.07;;
36855;SDS011;22788;51.434;6.786;2023-02-28T02:33:24;4.60;;;2.80;;
36855;SDS011;22788;51.434;6.786;2023-02-28T02:36:02;5.07;;;2.90;;
36855;SDS011;22788;51.434;6.786;2023-02-28T02:38:33;5.60;;;3.30;;
36855;SDS011;22788;51.434;6.786;2023-02-28T02:41:04;4.63;;;3.27;;
36855;SDS011;22788;51.434;6.786;2023-02-28T02:43:39;4.50;;;3.40;;
36855;SDS011;22788;51.434;6.786;2023-02-28T02:46:12;3.67;;;2.93;;
36855;SDS011;22788;51.434;6.786;2023-02-28T02:48:43;3.03;;;2.73;;
36855;SDS011;22788;51.434;6.786;2023-02-28T02:51:13;4.33;;;3.10;;
36855;SDS011;22788;51.434;6.786;2023-02-28T02:53:42;3.03;;;2.70;;
36855;SDS011;22788;51.434;6.786;2023-02-28T02:56:13;4.63;;;2.87;;
36855;SDS011;22788;51.434;6.786;2023-02-28T02:58:41;3.70;;;3.13;;
36855;SDS011;22788;51.434;6.786;2023-02-28T03:01:10;4.63;;;3.50;;
36855;SDS011;22788;51.434;6.786;2023-02-28T03:03:39;4.67;;;3.17;;
36855;SDS011;22788;51.434;6.786;2023-02-28T03:06:06;3.40;;;2.90;;
36855;SDS011;22788;51.434;6.786;2023-02-28T03:08:35;3.43;;;2.40;;
36855;SDS011;22788;51.434;6.786;2023-02-28T03:11:02;3.17;;;2.80;;
36855;SDS011;22788;51.434;6.786;2023-02-28T03:13:35;5.67;;;2.93;;
36855;SDS011;22788;51.434;6.786;2023-02-28T03:16:15;3.20;;;2.90;;
36855;SDS011;22788;51.434;6.786;2023-02-28T03:18:54;3.50;;;2.70;;
36855;SDS011;22788;51.434;6.786;2023-02-28T03:21:29;3.73;;;2.70;;
36855;SDS011;22788;51.434;6.786;2023-02-28T03:24:03;3.30;;;2.70;;
36855;SDS011;22788;51.434;6.786;2023-02-28T03:26:34;3.80;;;2.73;;
36855;SDS011;22788;51.434;6.786;2023-02-28T03:29:05;3.77;;;2.87;;
36855;SDS011;22788;51.434;6.786;2023-02-28T03:31:37;4.03;;;2.77;;
36855;SDS011;22788;51.434;6.786;2023-02-28T03:34:08;6.43;;;3.20;;
36855;SDS011;22788;51.434;6.786;2023-02-28T03:36:39;4.33;;;3.47;;
36855;SDS011;22788;51.434;6.786;2023-02-28T03:39:11;3.97;;;2.80;;
36855;SDS011;22788;51.434;6.786;2023-02-28T03:41:42;3.13;;;2.50;;
36855;SDS011;22788;51.434;6.786;2023-02-28T03:44:12;4.90;;;3.00;;
36855;SDS011;22788;51.434;6.786;2023-02-28T03:46:42;4.90;;;3.03;;
36855;SDS011;22788;51.434;6.786;2023-02-28T03:49:14;3.07;;;2.67;;
36855;SDS011;22788;51.434;6.786;2023-02-28T03:51:43;5.17;;;3.13;;
36855;SDS011;22788;51.434;6.786;2023-02-28T03:54:15;3.23;;;2.90;;
36855;SDS011;22788;51.434;6.786;2023-02-28T03:56:45;4.40;;;2.97;;
36855;SDS011;22788;51.434;6.786;2023-02-28T03:59:17;4.03;;;3.43;;
36855;SDS011;22788;51.434;6.786;2023-02-28T04:01:47;3.97;;;2.67;;
36855;SDS011;22788;51.434;6.786;2023-02-28T04:04:14;5.03;;;2.80;;
36855;SDS011;22788;51.434;6.786;2023-02-28T04:06:42;4.47;;;2.53;;
36855;SDS011;22788;51.434;6.786;2023-02-28T04:09:10;3.93;;;2.70;;
36855;SDS011;22788;51.434;6.786;2023-02-28T04:11:40;3.67;;;2.80;;
36855;SDS011;22788;51.434;6.786;2023-02-28T04:14:08;6.50;;;3.10;;
36855;SDS011;22788;51.434;6.786;2023-02-28T04:16:35;4.77;;;3.07;;
36855;SDS011;22788;51.434;6.786;2023-02-28T04:19:02;3.17;;;2.60;;
36855;SDS011;22788;51.434;6.786;2023-02-28T04:21:30;5.83;;;3.00;;
36855;SDS011;22788;51.434;6.786;2023-02-28T04:23:57;5.87;;;2.90;;
36855;SDS011;22788;51.434;6.786;2023-02-28T04:26:23;4.23;;;3.03;;
36855;SDS011;22788;51.434;6.786;2023-02-28T04:28:50;5.87;;;2.97;;
36855;SDS011;22788;51.434;6.786;2023-02-28T04:31:16;3.50;;;2.60;;
36855;SDS011;22788;51.434;6.786;2023-02-28T04:33:42;4.07;;;3.10;;
36855;SDS011;22788;51.434;6.786;2023-02-28T04:36:09;4.33;;;2.80;;
36855;SDS011;22788;51.434;6.786;2023-02-28T04:38:35;3.20;;;2.57;;
36855;SDS011;22788;51.434;6.786;2023-02-28T04:41:02;5.97;;;2.90;;
36855;SDS011;22788;51.434;6.786;2023-02-28T04:43:29;3.50;;;2.93;;
36855;SDS011;22788;51.434;6.786;2023-02-28T04:45:58;3.87;;;2.70;;
36855;SDS011;22788;51.434;6.786;2023-02-28T04:48:28;3.10;;;2.63;;
36855;SDS011;22788;51.434;6.786;2023-02-28T04:50:59;4.70;;;3.03;;
36855;SDS011;22788;51.434;6.786;2023-02-28T04:53:25;3.20;;;2.60;;
36855;SDS011;22788;51.434;6.786;2023-02-28T04:55:52;4.30;;;3.13;;
36855;SDS011;22788;51.434;6.786;2023-02-28T04:58:18;4.23;;;2.83;;
36855;SDS011;22788;51.434;6.786;2023-02-28T05:00:44;4.13;;;2.93;;
36855;SDS011;22788;51.434;6.786;2023-02-28T05:03:12;3.27;;;2.70;;
36855;SDS011;22788;51.434;6.786;2023-02-28T05:05:38;2.60;;;2.40;;
36855;SDS011;22788;51.434;6.786;2023-02-28T05:08:04;3.57;;;3.00;;
36855;SDS011;22788;51.434;6.786;2023-02-28T05:10:30;4.07;;;2.43;;
36855;SDS011;22788;51.434;6.786;2023-02-28T05:12:56;3.00;;;2.67;;
36855;SDS011;22788;51.434;6.786;2023-02-28T05:15:22;4.73;;;2.73;;
36855;SDS011;22788;51.434;6.786;2023-02-28T05:17:48;3.60;;;3.10;;
36855;SDS011;22788;51.434;6.786;2023-02-28T05:20:16;3.60;;;3.30;;
36855;SDS011;22788;51.434;6.786;2023-02-28T05:22:42;3.20;;;2.70;;
36855;SDS011;22788;51.434;6.786;2023-02-28T05:25:09;4.03;;;2.77;;
36855;SDS011;22788;51.434;6.786;2023-02-28T05:27:37;6.23;;;3.23;;
36855;SDS011;22788;51.434;6.786;2023-02-28T05:30:04;5.77;;;2.93;;
36855;SDS011;22788;51.434;6.786;2023-02-28T05:32:31;5.23;;;2.93;;
36855;SDS011;22788;51.434;6.786;2023-02-28T05:34:57;5.30;;;3.10;;
36855;SDS011;22788;51.434;6.786;2023-02-28T05:37:24;5.10;;;3.17;;
36855;SDS011;22788;51.434;6.786;2023-02-28T05:39:50;3.57;;;2.83;;
36855;SDS011;22788;51.434;6.786;2023-02-28T05:42:16;7.00;;;3.27;;
36855;SDS011;22788;51.434;6.786;2023-02-28T05:44:42;3.83;;;3.03;;
36855;SDS011;22788;51.434;6.786;2023-02-28T05:47:08;3.13;;;2.83;;
36855;SDS011;22788;51.434;6.786;2023-02-28T05:49:34;3.40;;;2.60;;
36855;SDS011;22788;51.434;6.786;2023-02-28T05:52:00;3.80;;;2.60;;
36855;SDS011;22788;51.434;6.786;2023-02-28T05:54:28;4.30;;;3.07;;
36855;SDS011;22788;51.434;6.786;2023-02-28T05:56:54;3.63;;;2.63;;
36855;SDS011;22788;51.434;6.786;2023-02-28T05:59:20;4.03;;;2.60;;
36855;SDS011;22788;51.434;6.786;2023-02-28T06:01:46;3.03;;;2.63;;
36855;SDS011;22788;51.434;6.786;2023-02-28T06:04:12;3.43;;;2.50;;
36855;SDS011;22788;51.434;6.786;2023-02-28T06:06:38;2.93;;;2.40;;
36855;SDS011;22788;51.434;6.786;2023-02-28T06:09:04;2.67;;;2.43;;
36855;SDS011;22788;51.434;6.786;2023-02-28T06:11:32;3.00;;;2.57;;
36855;SDS011;22788;51.434;6.786;2023-02-28T06:13:59;3.83;;;2.90;;
36855;SDS011;22788;51.434;6.786;2023-02-28T06:16:26;3.97;;;2.77;;
36855;SDS011;22788;51.434;6.786;2023-02-28T06:18:52;2.60;;;2.40;;
36855;SDS011;22788;51.434;6.786;2023-02-28T06:21:18;3.57;;;2.80;;
36855;SDS011;22788;51.434;6.786;2023-02-28T06:23:44;3.40;;;2.87;;
36855;SDS011;22788;51.434;6.786;2023-02-28T06:26:11;2.90;;;2.13;;
36855;SDS011;22788;51.434;6.786;2023-02-28T06:28:38;4.17;;;2.43;;
36855;SDS011;22788;51.434;6.786;2023-02-28T06:31:07;3.67;;;3.00;;
36855;SDS011;22788;51.434;6.786;2023-02-28T06:33:35;3.67;;;2.40;;
36855;SDS011;22788;51.434;6.786;2023-02-28T06:36:03;3.70;;;2.60;;
36855;SDS011;22788;51.434;6.786;2023-02-28T06:38:30;3.27;;;2.40;;
36855;SDS011;22788;51.434;6.786;2023-02-28T06:40:57;4.40;;;2.80;;
36855;SDS011;22788;51.434;6.786;2023-02-28T06:43:25;3.07;;;2.73;;
36855;SDS011;22788;51.434;6.786;2023-02-28T06:45:55;3.20;;;2.53;;
36855;SDS011;22788;51.434;6.786;2023-02-28T06:48:21;2.83;;;2.53;;
36855;SDS011;22788;51.434;6.786;2023-02-28T06:50:48;4.37;;;2.73;;
36855;SDS011;22788;51.434;6.786;2023-02-28T06:53:14;4.10;;;2.50;;
36855;SDS011;22788;51.434;6.786;2023-02-28T06:55:40;5.83;;;2.73;;
36855;SDS011;22788;51.434;6.786;2023-02-28T06:58:06;5.90;;;3.33;;
36855;SDS011;22788;51.434;6.786;2023-02-28T07:00:32;3.23;;;2.50;;
36855;SDS011;22788;51.434;6.786;2023-02-28T07:02:59;3.73;;;2.70;;
36855;SDS011;22788;51.434;6.786;2023-02-28T07:05:25;2.50;;;2.30;;
36855;SDS011;22788;51.434;6.786;2023-02-28T07:07:51;3.83;;;2.60;;
36855;SDS011;22788;51.434;6.786;2023-02-28T07:10:17;3.07;;;2.50;;
36855;SDS011;22788;51.434;6.786;2023-02-28T07:12:43;2.43;;;2.23;;
36855;SDS011;22788;51.434;6.786;2023-02-28T07:15:09;3.27;;;2.43;;
36855;SDS011;22788;51.434;6.786;2023-02-28T07:17:36;4.50;;;2.60;;
36855;SDS011;22788;51.434;6.786;2023-02-28T07:20:03;3.87;;;2.67;;
36855;SDS011;22788;51.434;6.786;2023-02-28T07:22:30;5.70;;;2.50;;
36855;SDS011;22788;51.434;6.786;2023-02-28T07:24:56;2.50;;;2.30;;
36855;SDS011;22788;51.434;6.786;2023-02-28T07:27:22;3.33;;;2.40;;
36855;SDS011;22788;51.434;6.786;2023-02-28T07:29:48;3.60;;;2.77;;
36855;SDS011;22788;51.434;6.786;2023-02-28T07:32:14;5.43;;;2.70;;
36855;SDS011;22788;51.434;6.786;2023-02-28T07:34:40;3.17;;;2.50;;
36855;SDS011;22788;51.434;6.786;2023-02-28T07:37:08;2.97;;;2.43;;
36855;SDS011;22788;51.434;6.786;2023-02-28T07:39:34;3.90;;;2.83;;
36855;SDS011;22788;51.434;6.786;2023-02-28T07:42:00;3.97;;;2.43;;
36855;SDS011;22788;51.434;6.786;2023-02-28T07:44:29;4.27;;;2.43;;
36855;SDS011;22788;51.434;6.786;2023-02-28T07:46:55;5.57;;;2.87;;
36855;SDS011;22788;51.434;6.786;2023-02-28T07:49:21;5.63;;;2.70;;
36855;SDS011;22788;51.434;6.786;2023-02-28T07:51:47;4.50;;;2.80;;
36855;SDS011;22788;51.434;6.786;2023-02-28T07:54:14;2.87;;;2.50;;
36855;SDS011;22788;51.434;6.786;2023-02-28T07:56:40;4.53;;;2.27;;
36855;SDS011;22788;51.434;6.786;2023-02-28T07:59:06;4.07;;;2.57;;
36855;SDS011;22788;51.434;6.786;2023-02-28T08:01:32;3.43;;;2.30;;
36855;SDS011;22788;51.434;6.786;2023-02-28T08:03:58;3.70;;;2.57;;
36855;SDS011;22788;51.434;6.786;2023-02-28T08:06:24;3.70;;;2.63;;
36855;SDS011;22788;51.434;6.786;2023-02-28T08:08:54;3.43;;;3.00;;
36855;SDS011;22788;51.434;6.786;2023-02-28T08:11:21;5.03;;;2.87;;
36855;SDS011;22788;51.434;6.786;2023-02-28T08:13:47;4.50;;;2.60;;
36855;SDS011;22788;51.434;6.786;2023-02-28T08:16:14;3.07;;;2.10;;
36855;SDS011;22788;51.434;6.786;2023-02-28T08:18:40;3.40;;;2.50;;
36855;SDS011;22788;51.434;6.786;2023-02-28T08:21:06;6.53;;;2.47;;
36855;SDS011;22788;51.434;6.786;2023-02-28T08:23:33;3.37;;;2.63;;
36855;SDS011;22788;51.434;6.786;2023-02-28T08:25:59;4.17;;;2.53;;
36855;SDS011;22788;51.434;6.786;2023-02-28T08:28:26;3.07;;;2.40;;
36855;SDS011;22788;51.434;6.786;2023-02-28T08:30:52;3.77;;;2.30;;
36855;SDS011;22788;51.434;6.786;2023-02-28T08:33:18;3.53;;;2.63;;
36855;SDS011;22788;51.434;6.786;2023-02-28T08:35:44;3.90;;;3.03;;
36855;SDS011;22788;51.434;6.786;2023-02-28T08:38:10;3.43;;;2.20;;
36855;SDS011;22788;51.434;6.786;2023-02-28T08:40:36;3.47;;;2.93;;
36855;SDS011;22788;51.434;6.786;2023-02-28T08:43:02;3.60;;;2.60;;
36855;SDS011;22788;51.434;6.786;2023-02-28T08:45:30;4.10;;;2.63;;
36855;SDS011;22788;51.434;6.786;2023-02-28T08:47:56;2.87;;;2.60;;
36855;SDS011;22788;51.434;6.786;2023-02-28T08:50:22;2.63;;;2.43;;
36855;SDS011;22788;51.434;6.786;2023-02-28T08:52:48;3.63;;;2.60;;
36855;SDS011;22788;51.434;6.786;2023-02-28T08:55:14;3.60;;;2.80;;
36855;SDS011;22788;51.434;6.786;2023-02-28T08:57:40;5.73;;;2.97;;
36855;SDS011;22788;51.434;6.786;2023-02-28T09:00:07;3.23;;;2.53;;
36855;SDS011;22788;51.434;6.786;2023-02-28T09:02:35;5.93;;;2.83;;
36855;SDS011;22788;51.434;6.786;2023-02-28T09:05:01;3.37;;;2.67;;
36855;SDS011;22788;51.434;6.786;2023-02-28T09:07:28;3.37;;;2.47;;
36855;SDS011;22788;51.434;6.786;2023-02-28T09:09:54;3.43;;;2.47;;
36855;SDS011;22788;51.434;6.786;2023-02-28T09:12:20;2.93;;;2.30;;
36855;SDS011;22788;51.434;6.786;2023-02-28T09:14:46;2.87;;;2.50;;
36855;SDS011;22788;51.434;6.786;2023-02-28T09:17:12;2.70;;;2.37;;
36855;SDS011;22788;51.434;6.786;2023-02-28T09:19:39;4.27;;;2.77;;
36855;SDS011;22788;51.434;6.786;2023-02-28T09:22:05;5.10;;;2.17;;
36855;SDS011;22788;51.434;6.786;2023-02-28T09:24:31;2.23;;;2.03;;
36855;SDS011;22788;51.434;6.786;2023-02-28T09:26:57;2.67;;;2.47;;
36855;SDS011;22788;51.434;6.786;2023-02-28T09:29:23;2.77;;;1.90;;
36855;SDS011;22788;51.434;6.786;2023-02-28T09:31:50;2.90;;;2.20;;
36855;SDS011;22788;51.434;6.786;2023-02-28T09:34:16;2.67;;;2.07;;
36855;SDS011;22788;51.434;6.786;2023-02-28T09:36:43;3.83;;;2.23;;
36855;SDS011;22788;51.434;6.786;2023-02-28T09:39:09;3.73;;;2.50;;
36855;SDS011;22788;51.434;6.786;2023-02-28T09:41:36;3.00;;;2.40;;
36855;SDS011;22788;51.434;6.786;2023-02-28T09:44:04;4.90;;;2.60;;
36855;SDS011;22788;51.434;6.786;2023-02-28T09:46:33;2.47;;;2.23;;
36855;SDS011;22788;51.434;6.786;2023-02-28T09:49:04;3.30;;;2.63;;
36855;SDS011;22788;51.434;6.786;2023-02-28T09:51:34;2.53;;;2.03;;
36855;SDS011;22788;51.434;6.786;2023-02-28T09:54:10;2.60;;;2.40;;
36855;SDS011;22788;51.434;6.786;2023-02-28T09:56:40;2.50;;;1.90;;
36855;SDS011;22788;51.434;6.786;2023-02-28T09:59:10;4.43;;;2.30;;
36855;SDS011;22788;51.434;6.786;2023-02-28T10:01:43;4.30;;;2.50;;
36855;SDS011;22788;51.434;6.786;2023-02-28T10:04:16;6.13;;;2.13;;
36855;SDS011;22788;51.434;6.786;2023-02-28T10:06:53;3.17;;;2.40;;
36855;SDS011;22788;51.434;6.786;2023-02-28T10:09:21;3.00;;;2.37;;
36855;SDS011;22788;51.434;6.786;2023-02-28T10:11:50;3.40;;;2.50;;
36855;SDS011;22788;51.434;6.786;2023-02-28T10:14:19;2.10;;;1.90;;
36855;SDS011;22788;51.434;6.786;2023-02-28T10:16:47;2.40;;;2.20;;
36855;SDS011;22788;51.434;6.786;2023-02-28T10:19:18;4.07;;;2.30;;
36855;SDS011;22788;51.434;6.786;2023-02-28T10:21:47;2.37;;;2.17;;
36855;SDS011;22788;51.434;6.786;2023-02-28T10:24:23;3.03;;;2.20;;
36855;SDS011;22788;51.434;6.786;2023-02-28T10:26:56;8.30;;;2.57;;
36855;SDS011;22788;51.434;6.786;2023-02-28T10:29:25;2.70;;;2.50;;
36855;SDS011;22788;51.434;6.786;2023-02-28T10:31:51;1.80;;;1.70;;
36855;SDS011;22788;51.434;6.786;2023-02-28T10:34:17;3.03;;;2.20;;
36855;SDS011;22788;51.434;6.786;2023-02-28T10:36:43;2.30;;;2.10;;
36855;SDS011;22788;51.434;6.786;2023-02-28T10:42:24;3.83;;;2.40;;
36855;SDS011;22788;51.434;6.786;2023-02-28T10:47:38;4.50;;;2.00;;
36855;SDS011;22788;51.434;6.786;2023-02-28T10:50:26;2.20;;;2.00;;
36855;SDS011;22788;51.434;6.786;2023-02-28T10:53:07;2.70;;;2.40;;
36855;SDS011;22788;51.434;6.786;2023-02-28T10:55:42;4.10;;;1.97;;
36855;SDS011;22788;51.434;6.786;2023-02-28T10:58:18;2.63;;;1.70;;
36855;SDS011;22788;51.434;6.786;2023-02-28T11:00:46;2.40;;;2.00;;
36855;SDS011;22788;51.434;6.786;2023-02-28T11:03:22;2.27;;;1.70;;
36855;SDS011;22788;51.434;6.786;2023-02-28T11:05:50;3.97;;;1.73;;
36855;SDS011;22788;51.434;6.786;2023-02-28T11:08:17;2.47;;;2.10;;
36855;SDS011;22788;51.434;6.786;2023-02-28T11:10:46;4.13;;;1.97;;
36855;SDS011;22788;51.434;6.786;2023-02-28T11:13:16;2.43;;;2.13;;
36855;SDS011;22788;51.434;6.786;2023-02-28T11:15:49;2.43;;;2.23;;
36855;SDS011;22788;51.434;6.786;2023-02-28T11:18:23;3.43;;;1.60;;
36855;SDS011;22788;51.434;6.786;2023-02-28T11:20:53;2.60;;;2.00;;
36855;SDS011;22788;51.434;6.786;2023-02-28T11:23:20;3.53;;;2.07;;
36855;SDS011;22788;51.434;6.786;2023-02-28T11:25:51;2.07;;;1.87;;
36855;SDS011;22788;51.434;6.786;2023-02-28T11:28:25;2.73;;;1.83;;
36855;SDS011;22788;51.434;6.786;2023-02-28T11:31:01;1.73;;;1.63;;
36855;SDS011;22788;51.434;6.786;2023-02-28T11:33:29;2.00;;;1.70;;
36855;SDS011;22788;51.434;6.786;2023-02-28T11:35:57;3.80;;;1.80;;
36855;SDS011;22788;51.434;6.786;2023-02-28T11:38:26;2.33;;;1.90;;
36855;SDS011;22788;51.434;6.786;2023-02-28T11:40:57;1.97;;;1.80;;
36855;SDS011;22788;51.434;6.786;2023-02-28T11:43:42;2.10;;;1.90;;
36855;SDS011;22788;51.434;6.786;2023-02-28T11:46:20;3.27;;;2.30;;
36855;SDS011;22788;51.434;6.786;2023-02-28T11:48:55;2.93;;;1.53;;
36855;SDS011;22788;51.434;6.786;2023-02-28T11:51:28;2.13;;;1.90;;
36855;SDS011;22788;51.434;6.786;2023-02-28T11:54:02;2.20;;;2.00;;
36855;SDS011;22788;51.434;6.786;2023-02-28T11:56:49;3.73;;;2.23;;
36855;SDS011;22788;51.434;6.786;2023-02-28T11:59:29;3.27;;;2.10;;
36855;SDS011;22788;51.434;6.786;2023-02-28T12:02:22;2.83;;;2.30;;
36855;SDS011;22788;51.434;6.786;2023-02-28T12:04:58;1.90;;;1.80;;
36855;SDS011;22788;51.434;6.786;2023-02-28T12:07:45;2.53;;;1.73;;
36855;SDS011;22788;51.434;6.786;2023-02-28T12:10:21;2.30;;;2.00;;
36855;SDS011;22788;51.434;6.786;2023-02-28T12:12:54;2.57;;;2.37;;
36855;SDS011;22788;51.434;6.786;2023-02-28T12:15:36;1.97;;;1.87;;
36855;SDS011;22788;51.434;6.786;2023-02-28T12:18:19;2.33;;;2.03;;
36855;SDS011;22788;51.434;6.786;2023-02-28T12:20:53;2.53;;;2.20;;
36855;SDS011;22788;51.434;6.786;2023-02-28T12:23:34;3.33;;;1.87;;
36855;SDS011;22788;51.434;6.786;2023-02-28T12:26:13;3.37;;;1.70;;
36855;SDS011;22788;51.434;6.786;2023-02-28T12:28:46;3.30;;;2.00;;
36855;SDS011;22788;51.434;6.786;2023-02-28T12:31:17;2.27;;;2.07;;
36855;SDS011;22788;51.434;6.786;2023-02-28T12:33:46;1.90;;;1.70;;
36855;SDS011;22788;51.434;6.786;2023-02-28T12:36:17;1.90;;;1.70;;
36855;SDS011;22788;51.434;6.786;2023-02-28T12:38:45;1.67;;;1.57;;
36855;SDS011;22788;51.434;6.786;2023-02-28T12:41:15;2.53;;;2.00;;
36855;SDS011;22788;51.434;6.786;2023-02-28T12:43:46;2.33;;;1.80;;
36855;SDS011;22788;51.434;6.786;2023-02-28T12:46:16;2.40;;;2.10;;
36855;SDS011;22788;51.434;6.786;2023-02-28T12:48:47;1.73;;;1.63;;
36855;SDS011;22788;51.434;6.786;2023-02-28T12:51:17;4.83;;;1.90;;
36855;SDS011;22788;51.434;6.786;2023-02-28T12:53:50;2.20;;;2.00;;
36855;SDS011;22788;51.434;6.786;2023-02-28T12:56:26;2.17;;;1.97;;
36855;SDS011;22788;51.434;6.786;2023-02-28T12:59:01;6.97;;;2.10;;
36855;SDS011;22788;51.434;6.786;2023-02-28T13:01:42;3.20;;;2.30;;
36855;SDS011;22788;51.434;6.786;2023-02-28T13:04:43;2.03;;;1.70;;
36855;SDS011;22788;51.434;6.786;2023-02-28T13:10:15;2.40;;;2.20;;
36855;SDS011;22788;51.434;6.786;2023-02-28T13:12:46;2.47;;;2.27;;
36855;SDS011;22788;51.434;6.786;2023-02-28T13:15:18;2.57;;;1.83;;
36855;SDS011;22788;51.434;6.786;2023-02-28T13:17:48;3.42;;;2.63;;
36855;SDS011;22788;51.434;6.786;2023-02-28T13:20:16;4.10;;;2.30;;
36855;SDS011;22788;51.434;6.786;2023-02-28T13:22:46;4.87;;;3.00;;
36855;SDS011;22788;51.434;6.786;2023-02-28T13:27:57;2.87;;;2.03;;
36855;SDS011;22788;51.434;6.786;2023-02-28T13:33:23;2.03;;;1.90;;
36855;SDS011;22788;51.434;6.786;2023-02-28T13:36:00;2.00;;;1.90;;
36855;SDS011;22788;51.434;6.786;2023-02-28T13:38:34;2.90;;;2.53;;
36855;SDS011;22788;51.434;6.786;2023-02-28T13:44:01;3.57;;;2.63;;
36855;SDS011;22788;51.434;6.786;2023-02-28T13:46:28;2.10;;;2.00;;
36855;SDS011;22788;51.434;6.786;2023-02-28T13:48:56;2.13;;;1.93;;
36855;SDS011;22788;51.434;6.786;2023-02-28T13:51:37;2.40;;;2.17;;
36855;SDS011;22788;51.434;6.786;2023-02-28T13:54:05;4.77;;;2.20;;
36855;SDS011;22788;51.434;6.786;2023-02-28T13:56:35;3.30;;;3.00;;
36855;SDS011;22788;51.434;6.786;2023-02-28T13:59:12;2.50;;;2.30;;
36855;SDS011;22788;51.434;6.786;2023-02-28T14:01:44;2.87;;;2.40;;
36855;SDS011;22788;51.434;6.786;2023-02-28T14:04:41;2.63;;;2.00;;
36855;SDS011;22788;51.434;6.786;2023-02-28T14:07:09;7.13;;;3.43;;
36855;SDS011;22788;51.434;6.786;2023-02-28T14:09:44;3.30;;;2.17;;
36855;SDS011;22788;51.434;6.786;2023-02-28T14:14:59;4.80;;;2.77;;
36855;SDS011;22788;51.434;6.786;2023-02-28T14:17:25;5.60;;;2.67;;
36855;SDS011;22788;51.434;6.786;2023-02-28T14:19:53;3.67;;;2.50;;
36855;SDS011;22788;51.434;6.786;2023-02-28T14:22:36;2.90;;;2.50;;
36855;SDS011;22788;51.434;6.786;2023-02-28T14:25:08;2.80;;;2.60;;
36855;SDS011;22788;51.434;6.786;2023-02-28T14:27:37;2.90;;;2.70;;
36855;SDS011;22788;51.434;6.786;2023-02-28T14:30:15;3.07;;;2.40;;
36855;SDS011;22788;51.434;6.786;2023-02-28T14:32:47;2.50;;;2.30;;
36855;SDS011;22788;51.434;6.786;2023-02-28T14:35:29;4.23;;;2.20;;
36855;SDS011;22788;51.434;6.786;2023-02-28T14:38:02;2.63;;;2.40;;
36855;SDS011;22788;51.434;6.786;2023-02-28T14:40:31;2.47;;;2.27;;
36855;SDS011;22788;51.434;6.786;2023-02-28T14:42:59;3.40;;;3.10;;
36855;SDS011;22788;51.434;6.786;2023-02-28T14:45:26;3.37;;;2.60;;
36855;SDS011;22788;51.434;6.786;2023-02-28T14:47:53;4.87;;;2.90;;
36855;SDS011;22788;51.434;6.786;2023-02-28T14:50:20;3.50;;;2.37;;
36855;SDS011;22788;51.434;6.786;2023-02-28T14:52:48;4.53;;;2.43;;
36855;SDS011;22788;51.434;6.786;2023-02-28T14:55:15;2.47;;;2.20;;
36855;SDS011;22788;51.434;6.786;2023-02-28T14:57:50;4.73;;;2.80;;
36855;SDS011;22788;51.434;6.786;2023-02-28T15:00:20;5.33;;;2.73;;
36855;SDS011;22788;51.434;6.786;2023-02-28T15:02:47;3.23;;;2.93;;
36855;SDS011;22788;51.434;6.786;2023-02-28T15:05:20;4.17;;;3.03;;
36855;SDS011;22788;51.434;6.786;2023-02-28T15:07:49;4.10;;;2.87;;
36855;SDS011;22788;51.434;6.786;2023-02-28T15:10:26;3.00;;;2.33;;
36855;SDS011;22788;51.434;6.786;2023-02-28T15:12:53;4.00;;;2.70;;
36855;SDS011;22788;51.434;6.786;2023-02-28T15:15:20;3.03;;;2.70;;
36855;SDS011;22788;51.434;6.786;2023-02-28T15:17:49;3.33;;;2.83;;
36855;SDS011;22788;51.434;6.786;2023-02-28T15:20:16;2.93;;;2.73;;
36855;SDS011;22788;51.434;6.786;2023-02-28T15:22:43;3.87;;;3.07;;
36855;SDS011;22788;51.434;6.786;2023-02-28T15:25:12;4.60;;;2.77;;